Terminal Aerodrome Forecast
Issued by NWS

Home | Current Version | Previous Version | Text Only | Print | Product List | Glossary On
Versions: 1 2 3 4 5 6 7 8 9 10 11 12 13 14 15 16 17 18 19 20 21 22 23 24
827
FTUS43 KDVN 221130
TAFCID
TAF
KCID 221130Z 2212/2312 18007KT P6SM SCT007 BKN200
      TEMPO 2212/2213 BKN007
     FM221400 20006KT P6SM BKN015
     FM221500 21007KT P6SM SCT030 BKN200
     FM230100 13005KT 6SM HZ SCT250=

USA.gov is the U.S. government's official web portal to all federal, state and local government web resources and services.